sensor_id;sensor_type;location;lat;lon;timestamp;pressure;altitude;pressure_sealevel;temperature;humidity
61898;BME280;47850;50.274;18.908;2023-03-23T00:02:07;97630.95;;;9.44;74.64
61898;BME280;47850;50.274;18.908;2023-03-23T00:04:34;97624.45;;;9.42;74.65
61898;BME280;47850;50.274;18.908;2023-03-23T00:07:02;97625.06;;;9.42;74.69
61898;BME280;47850;50.274;18.908;2023-03-23T00:09:30;97621.06;;;9.41;74.85
61898;BME280;47850;50.274;18.908;2023-03-23T00:12:01;97621.32;;;9.40;74.83
61898;BME280;47850;50.274;18.908;2023-03-23T00:14:32;97620.86;;;9.38;74.84
61898;BME280;47850;50.274;18.908;2023-03-23T00:17:09;97621.08;;;9.38;75.18
61898;BME280;47850;50.274;18.908;2023-03-23T00:19:38;97620.13;;;9.37;74.80
61898;BME280;47850;50.274;18.908;2023-03-23T00:22:23;97618.27;;;9.34;75.00
61898;BME280;47850;50.274;18.908;2023-03-23T00:24:52;97619.85;;;9.31;74.93
61898;BME280;47850;50.274;18.908;2023-03-23T00:27:20;97618.96;;;9.28;74.99
61898;BME280;47850;50.274;18.908;2023-03-23T00:29:51;97616.69;;;9.26;75.03
61898;BME280;47850;50.274;18.908;2023-03-23T00:32:23;97615.20;;;9.24;75.26
61898;BME280;47850;50.274;18.908;2023-03-23T00:34:55;97618.29;;;9.21;75.16
61898;BME280;47850;50.274;18.908;2023-03-23T00:37:23;97619.40;;;9.18;75.45
61898;BME280;47850;50.274;18.908;2023-03-23T00:39:51;97617.11;;;9.17;75.35
61898;BME280;47850;50.274;18.908;2023-03-23T00:42:24;97616.43;;;9.14;75.34
61898;BME280;47850;50.274;18.908;2023-03-23T00:44:52;97617.36;;;9.11;75.70
61898;BME280;47850;50.274;18.908;2023-03-23T00:47:27;97616.58;;;9.06;75.89
61898;BME280;47850;50.274;18.908;2023-03-23T00:57:18;97603.79;;;9.11;76.17
61898;BME280;47850;50.274;18.908;2023-03-23T00:59:46;97605.75;;;9.12;76.27
61898;BME280;47850;50.274;18.908;2023-03-23T01:02:14;97598.49;;;9.10;76.13
61898;BME280;47850;50.274;18.908;2023-03-23T01:04:42;97598.74;;;9.09;76.38
61898;BME280;47850;50.274;18.908;2023-03-23T01:07:12;97597.46;;;9.08;76.31
61898;BME280;47850;50.274;18.908;2023-03-23T01:09:48;97595.75;;;9.06;76.27
61898;BME280;47850;50.274;18.908;2023-03-23T01:12:15;97585.45;;;9.04;76.70
61898;BME280;47850;50.274;18.908;2023-03-23T01:14:43;97584.52;;;9.04;76.88
61898;BME280;47850;50.274;18.908;2023-03-23T01:17:11;97583.84;;;9.04;76.96
61898;BME280;47850;50.274;18.908;2023-03-23T01:19:38;97584.25;;;9.05;76.98
61898;BME280;47850;50.274;18.908;2023-03-23T01:22:07;97583.50;;;9.05;77.08
61898;BME280;47850;50.274;18.908;2023-03-23T01:43:14;97586.95;;;8.93;77.26
61898;BME280;47850;50.274;18.908;2023-03-23T01:45:42;97587.73;;;8.93;77.46
61898;BME280;47850;50.274;18.908;2023-03-23T02:14:00;97565.99;;;9.01;77.07
61898;BME280;47850;50.274;18.908;2023-03-23T02:27:02;97558.98;;;8.95;77.10
61898;BME280;47850;50.274;18.908;2023-03-23T02:30:16;97558.55;;;8.93;77.08
61898;BME280;47850;50.274;18.908;2023-03-23T02:32:28;97558.88;;;8.91;77.18
61898;BME280;47850;50.274;18.908;2023-03-23T02:35:08;97555.14;;;8.92;77.36
61898;BME280;47850;50.274;18.908;2023-03-23T02:37:41;97553.80;;;8.95;77.18
61898;BME280;47850;50.274;18.908;2023-03-23T02:40:21;97551.84;;;8.95;77.15
61898;BME280;47850;50.274;18.908;2023-03-23T02:42:51;97550.25;;;8.96;77.11
61898;BME280;47850;50.274;18.908;2023-03-23T02:45:20;97546.45;;;8.96;77.23
61898;BME280;47850;50.274;18.908;2023-03-23T02:47:50;97544.48;;;8.96;77.10
61898;BME280;47850;50.274;18.908;2023-03-23T02:50:19;97540.25;;;8.95;77.22
61898;BME280;47850;50.274;18.908;2023-03-23T02:52:49;97541.41;;;8.97;77.16
61898;BME280;47850;50.274;18.908;2023-03-23T02:55:18;97550.14;;;8.98;77.14
61898;BME280;47850;50.274;18.908;2023-03-23T02:57:46;97550.23;;;8.98;77.10
61898;BME280;47850;50.274;18.908;2023-03-23T03:00:15;97550.06;;;8.99;76.95
61898;BME280;47850;50.274;18.908;2023-03-23T03:02:44;97543.31;;;9.00;77.01
61898;BME280;47850;50.274;18.908;2023-03-23T03:07:50;97541.94;;;9.00;76.97
61898;BME280;47850;50.274;18.908;2023-03-23T03:13:24;97537.30;;;9.01;76.68
61898;BME280;47850;50.274;18.908;2023-03-23T03:18:54;97533.02;;;8.99;76.80
61898;BME280;47850;50.274;18.908;2023-03-23T03:21:25;97530.42;;;8.98;76.82
61898;BME280;47850;50.274;18.908;2023-03-23T03:23:55;97530.79;;;8.97;76.72
61898;BME280;47850;50.274;18.908;2023-03-23T03:26:26;97525.23;;;8.96;76.81
61898;BME280;47850;50.274;18.908;2023-03-23T03:28:55;97523.18;;;8.97;76.88
61898;BME280;47850;50.274;18.908;2023-03-23T03:31:28;97523.61;;;8.98;76.81
61898;BME280;47850;50.274;18.908;2023-03-23T03:33:56;97522.40;;;8.99;76.65
61898;BME280;47850;50.274;18.908;2023-03-23T03:36:26;97522.81;;;8.98;76.60
61898;BME280;47850;50.274;18.908;2023-03-23T03:38:55;97519.48;;;8.97;76.52
61898;BME280;47850;50.274;18.908;2023-03-23T03:41:24;97525.07;;;8.96;76.70
61898;BME280;47850;50.274;18.908;2023-03-23T03:43:52;97525.45;;;8.96;76.66
61898;BME280;47850;50.274;18.908;2023-03-23T03:46:20;97527.18;;;8.94;76.59
61898;BME280;47850;50.274;18.908;2023-03-23T03:48:47;97534.41;;;8.93;76.59
61898;BME280;47850;50.274;18.908;2023-03-23T03:51:15;97537.52;;;8.91;76.63
61898;BME280;47850;50.274;18.908;2023-03-23T03:53:44;97536.27;;;8.87;76.69
61898;BME280;47850;50.274;18.908;2023-03-23T03:56:11;97534.36;;;8.86;76.67
61898;BME280;47850;50.274;18.908;2023-03-23T03:58:41;97531.81;;;8.86;76.69
61898;BME280;47850;50.274;18.908;2023-03-23T04:01:09;97535.85;;;8.86;76.81
61898;BME280;47850;50.274;18.908;2023-03-23T04:03:38;97533.83;;;8.86;76.80
61898;BME280;47850;50.274;18.908;2023-03-23T04:06:05;97533.75;;;8.86;76.81
61898;BME280;47850;50.274;18.908;2023-03-23T04:08:33;97535.48;;;8.85;76.81
61898;BME280;47850;50.274;18.908;2023-03-23T04:11:01;97539.27;;;8.83;76.73
61898;BME280;47850;50.274;18.908;2023-03-23T04:13:29;97538.79;;;8.79;76.76
61898;BME280;47850;50.274;18.908;2023-03-23T04:15:57;97536.20;;;8.74;76.88
61898;BME280;47850;50.274;18.908;2023-03-23T04:18:24;97534.16;;;8.70;76.92
61898;BME280;47850;50.274;18.908;2023-03-23T04:20:52;97536.16;;;8.66;77.25
61898;BME280;47850;50.274;18.908;2023-03-23T04:23:20;97533.45;;;8.64;77.37
61898;BME280;47850;50.274;18.908;2023-03-23T04:25:49;97529.29;;;8.64;77.39
61898;BME280;47850;50.274;18.908;2023-03-23T04:28:17;97525.86;;;8.65;77.54
61898;BME280;47850;50.274;18.908;2023-03-23T04:30:46;97525.61;;;8.70;77.56
61898;BME280;47850;50.274;18.908;2023-03-23T04:33:16;97522.40;;;8.73;77.27
61898;BME280;47850;50.274;18.908;2023-03-23T04:35:45;97519.84;;;8.75;77.24
61898;BME280;47850;50.274;18.908;2023-03-23T04:38:13;97520.09;;;8.75;77.17
61898;BME280;47850;50.274;18.908;2023-03-23T04:40:42;97521.52;;;8.76;77.14
61898;BME280;47850;50.274;18.908;2023-03-23T04:43:11;97519.44;;;8.78;76.99
61898;BME280;47850;50.274;18.908;2023-03-23T04:45:40;97516.64;;;8.84;76.77
61898;BME280;47850;50.274;18.908;2023-03-23T04:48:08;97523.08;;;8.89;76.51
61898;BME280;47850;50.274;18.908;2023-03-23T04:50:37;97526.67;;;8.93;76.33
61898;BME280;47850;50.274;18.908;2023-03-23T04:53:05;97526.75;;;8.97;76.07
61898;BME280;47850;50.274;18.908;2023-03-23T04:55:34;97525.69;;;9.00;75.89
61898;BME280;47850;50.274;18.908;2023-03-23T04:58:06;97526.08;;;9.04;75.67
61898;BME280;47850;50.274;18.908;2023-03-23T05:00:34;97523.38;;;9.06;75.56
61898;BME280;47850;50.274;18.908;2023-03-23T05:03:02;97529.77;;;9.06;75.48
61898;BME280;47850;50.274;18.908;2023-03-23T05:05:30;97531.96;;;9.08;75.37
61898;BME280;47850;50.274;18.908;2023-03-23T05:07:59;97534.41;;;9.12;75.16
61898;BME280;47850;50.274;18.908;2023-03-23T05:10:27;97526.55;;;9.13;75.03
61898;BME280;47850;50.274;18.908;2023-03-23T05:12:55;97521.96;;;9.13;75.03
61898;BME280;47850;50.274;18.908;2023-03-23T05:15:23;97516.97;;;9.13;74.97
61898;BME280;47850;50.274;18.908;2023-03-23T05:17:51;97516.16;;;9.14;74.82
61898;BME280;47850;50.274;18.908;2023-03-23T05:20:19;97519.02;;;9.15;74.83
61898;BME280;47850;50.274;18.908;2023-03-23T05:22:50;97516.23;;;9.17;74.75
61898;BME280;47850;50.274;18.908;2023-03-23T05:25:18;97522.42;;;9.19;74.47
61898;BME280;47850;50.274;18.908;2023-03-23T05:27:50;97529.68;;;9.21;74.38
61898;BME280;47850;50.274;18.908;2023-03-23T05:30:20;97526.66;;;9.25;74.35
61898;BME280;47850;50.274;18.908;2023-03-23T05:32:48;97527.16;;;9.26;74.23
61898;BME280;47850;50.274;18.908;2023-03-23T05:35:19;97524.33;;;9.28;74.26
61898;BME280;47850;50.274;18.908;2023-03-23T05:37:47;97521.83;;;9.31;74.03
61898;BME280;47850;50.274;18.908;2023-03-23T05:40:15;97525.20;;;9.36;73.78
61898;BME280;47850;50.274;18.908;2023-03-23T05:42:43;97524.95;;;9.41;73.58
61898;BME280;47850;50.274;18.908;2023-03-23T05:45:12;97527.70;;;9.47;73.35
61898;BME280;47850;50.274;18.908;2023-03-23T05:47:40;97532.73;;;9.53;73.19
61898;BME280;47850;50.274;18.908;2023-03-23T05:50:08;97533.52;;;9.59;73.04
61898;BME280;47850;50.274;18.908;2023-03-23T05:52:36;97541.20;;;9.65;73.01
61898;BME280;47850;50.274;18.908;2023-03-23T05:55:04;97541.39;;;9.70;72.84
61898;BME280;47850;50.274;18.908;2023-03-23T05:57:33;97543.27;;;9.75;72.72
61898;BME280;47850;50.274;18.908;2023-03-23T06:00:01;97538.92;;;9.82;72.59
61898;BME280;47850;50.274;18.908;2023-03-23T06:02:39;97544.84;;;9.90;72.39
61898;BME280;47850;50.274;18.908;2023-03-23T06:05:07;97547.35;;;9.97;71.99
61898;BME280;47850;50.274;18.908;2023-03-23T06:07:34;97545.64;;;10.05;71.64
61898;BME280;47850;50.274;18.908;2023-03-23T06:10:03;97539.39;;;10.13;71.52
61898;BME280;47850;50.274;18.908;2023-03-23T06:12:31;97535.55;;;10.21;71.12
61898;BME280;47850;50.274;18.908;2023-03-23T06:14:59;97533.48;;;10.28;70.95
61898;BME280;47850;50.274;18.908;2023-03-23T06:17:27;97533.71;;;10.34;70.71
61898;BME280;47850;50.274;18.908;2023-03-23T06:19:55;97528.98;;;10.41;70.30
61898;BME280;47850;50.274;18.908;2023-03-23T06:22:22;97528.13;;;10.47;70.11
61898;BME280;47850;50.274;18.908;2023-03-23T06:24:50;97532.35;;;10.55;69.81
61898;BME280;47850;50.274;18.908;2023-03-23T06:27:18;97533.92;;;10.61;69.44
61898;BME280;47850;50.274;18.908;2023-03-23T06:29:46;97532.77;;;10.68;69.35
61898;BME280;47850;50.274;18.908;2023-03-23T06:32:14;97536.34;;;10.75;68.93
61898;BME280;47850;50.274;18.908;2023-03-23T06:34:42;97535.66;;;10.82;68.53
61898;BME280;47850;50.274;18.908;2023-03-23T06:37:11;97535.05;;;10.89;68.03
61898;BME280;47850;50.274;18.908;2023-03-23T06:39:39;97532.80;;;10.97;67.79
61898;BME280;47850;50.274;18.908;2023-03-23T06:42:10;97534.54;;;11.04;66.99
61898;BME280;47850;50.274;18.908;2023-03-23T06:44:39;97535.32;;;11.11;66.66
61898;BME280;47850;50.274;18.908;2023-03-23T06:47:07;97534.36;;;11.17;66.31
61898;BME280;47850;50.274;18.908;2023-03-23T06:49:35;97534.97;;;11.24;66.28
61898;BME280;47850;50.274;18.908;2023-03-23T06:52:02;97534.34;;;11.29;65.85
61898;BME280;47850;50.274;18.908;2023-03-23T06:54:30;97536.45;;;11.33;65.92
61898;BME280;47850;50.274;18.908;2023-03-23T06:56:58;97536.38;;;11.39;65.88
61898;BME280;47850;50.274;18.908;2023-03-23T06:59:26;97539.63;;;11.43;65.89
61898;BME280;47850;50.274;18.908;2023-03-23T07:01:53;97540.84;;;11.46;65.22
61898;BME280;47850;50.274;18.908;2023-03-23T07:04:21;97534.33;;;11.48;64.71
61898;BME280;47850;50.274;18.908;2023-03-23T07:06:50;97544.94;;;11.50;64.29
61898;BME280;47850;50.274;18.908;2023-03-23T07:09:18;97546.23;;;11.54;64.49
61898;BME280;47850;50.274;18.908;2023-03-23T07:11:46;97547.65;;;11.57;63.82
61898;BME280;47850;50.274;18.908;2023-03-23T07:14:14;97546.84;;;11.61;63.75
61898;BME280;47850;50.274;18.908;2023-03-23T07:16:42;97546.08;;;11.64;63.58
61898;BME280;47850;50.274;18.908;2023-03-23T07:19:10;97546.94;;;11.67;63.58
61898;BME280;47850;50.274;18.908;2023-03-23T07:21:38;97550.88;;;11.71;63.29
61898;BME280;47850;50.274;18.908;2023-03-23T07:24:06;97551.58;;;11.75;63.15
61898;BME280;47850;50.274;18.908;2023-03-23T07:26:38;97553.73;;;11.79;62.98
61898;BME280;47850;50.274;18.908;2023-03-23T07:29:06;97556.20;;;11.84;62.83
61898;BME280;47850;50.274;18.908;2023-03-23T07:31:34;97556.86;;;11.87;62.66
61898;BME280;47850;50.274;18.908;2023-03-23T07:34:02;97556.64;;;11.90;62.63
61898;BME280;47850;50.274;18.908;2023-03-23T07:36:30;97560.91;;;11.92;62.54
61898;BME280;47850;50.274;18.908;2023-03-23T07:38:58;97559.52;;;11.95;62.66
61898;BME280;47850;50.274;18.908;2023-03-23T07:41:26;97563.84;;;11.98;62.61
61898;BME280;47850;50.274;18.908;2023-03-23T07:43:53;97564.96;;;12.01;62.37
61898;BME280;47850;50.274;18.908;2023-03-23T07:46:21;97567.61;;;12.04;61.97
61898;BME280;47850;50.274;18.908;2023-03-23T07:48:49;97563.45;;;12.08;61.84
61898;BME280;47850;50.274;18.908;2023-03-23T07:51:17;97566.40;;;12.12;61.43
61898;BME280;47850;50.274;18.908;2023-03-23T07:53:44;97562.10;;;12.20;61.66
61898;BME280;47850;50.274;18.908;2023-03-23T07:56:12;97565.82;;;12.27;61.44
61898;BME280;47850;50.274;18.908;2023-03-23T07:58:42;97563.09;;;12.35;61.37
61898;BME280;47850;50.274;18.908;2023-03-23T08:01:09;97562.10;;;12.39;60.67
61898;BME280;47850;50.274;18.908;2023-03-23T08:03:37;97561.96;;;12.42;60.56
61898;BME280;47850;50.274;18.908;2023-03-23T08:06:05;97561.67;;;12.46;61.09
61898;BME280;47850;50.274;18.908;2023-03-23T08:08:33;97559.38;;;12.53;60.73
61898;BME280;47850;50.274;18.908;2023-03-23T08:11:01;97556.23;;;12.61;60.67
61898;BME280;47850;50.274;18.908;2023-03-23T08:13:28;97555.66;;;12.69;60.27
61898;BME280;47850;50.274;18.908;2023-03-23T08:15:56;97554.88;;;12.77;59.80
61898;BME280;47850;50.274;18.908;2023-03-23T08:18:24;97551.35;;;12.85;59.21
61898;BME280;47850;50.274;18.908;2023-03-23T08:20:52;97549.59;;;12.95;58.78
61898;BME280;47850;50.274;18.908;2023-03-23T08:23:21;97550.92;;;13.11;58.64
61898;BME280;47850;50.274;18.908;2023-03-23T08:25:49;97551.70;;;13.29;57.39
61898;BME280;47850;50.274;18.908;2023-03-23T08:28:16;97545.06;;;13.41;56.41
61898;BME280;47850;50.274;18.908;2023-03-23T08:30:44;97548.39;;;13.56;55.95
61898;BME280;47850;50.274;18.908;2023-03-23T08:33:13;97543.24;;;13.63;55.15
61898;BME280;47850;50.274;18.908;2023-03-23T08:35:41;97543.92;;;13.69;55.69
61898;BME280;47850;50.274;18.908;2023-03-23T08:38:11;97548.05;;;13.81;55.04
61898;BME280;47850;50.274;18.908;2023-03-23T08:40:39;97546.96;;;13.92;54.49
61898;BME280;47850;50.274;18.908;2023-03-23T08:43:06;97549.11;;;14.04;54.36
61898;BME280;47850;50.274;18.908;2023-03-23T08:45:34;97551.35;;;14.17;53.69
61898;BME280;47850;50.274;18.908;2023-03-23T08:48:02;97553.14;;;14.23;52.94
61898;BME280;47850;50.274;18.908;2023-03-23T08:50:30;97544.05;;;14.31;53.03
61898;BME280;47850;50.274;18.908;2023-03-23T08:52:58;97538.04;;;14.39;53.07
61898;BME280;47850;50.274;18.908;2023-03-23T08:55:25;97540.73;;;14.48;52.89
61898;BME280;47850;50.274;18.908;2023-03-23T08:57:53;97541.73;;;14.51;52.29
61898;BME280;47850;50.274;18.908;2023-03-23T09:00:21;97541.52;;;14.48;52.27
61898;BME280;47850;50.274;18.908;2023-03-23T09:02:52;97538.40;;;14.49;52.63
61898;BME280;47850;50.274;18.908;2023-03-23T09:05:21;97544.80;;;14.56;52.22
61898;BME280;47850;50.274;18.908;2023-03-23T09:07:50;97546.31;;;14.61;51.79
61898;BME280;47850;50.274;18.908;2023-03-23T09:10:18;97546.48;;;14.65;50.91
61898;BME280;47850;50.274;18.908;2023-03-23T09:12:46;97541.08;;;14.72;51.32
61898;BME280;47850;50.274;18.908;2023-03-23T09:15:15;97537.95;;;14.85;51.50
61898;BME280;47850;50.274;18.908;2023-03-23T09:17:46;97540.98;;;15.01;51.24
61898;BME280;47850;50.274;18.908;2023-03-23T09:20:16;97538.64;;;15.14;50.51
61898;BME280;47850;50.274;18.908;2023-03-23T09:22:46;97538.39;;;15.19;49.75
61898;BME280;47850;50.274;18.908;2023-03-23T09:25:14;97540.66;;;15.23;50.36
61898;BME280;47850;50.274;18.908;2023-03-23T09:27:43;97546.21;;;15.30;50.23
61898;BME280;47850;50.274;18.908;2023-03-23T09:30:12;97542.40;;;15.37;49.21
61898;BME280;47850;50.274;18.908;2023-03-23T09:32:41;97545.63;;;15.42;49.14
61898;BME280;47850;50.274;18.908;2023-03-23T09:35:11;97547.08;;;15.54;49.73
61898;BME280;47850;50.274;18.908;2023-03-23T09:37:39;97542.59;;;15.68;48.98
61898;BME280;47850;50.274;18.908;2023-03-23T09:40:10;97545.92;;;15.84;48.90
61898;BME280;47850;50.274;18.908;2023-03-23T09:42:54;97551.23;;;15.98;47.84
61898;BME280;47850;50.274;18.908;2023-03-23T09:50:27;97547.92;;;16.37;46.44
61898;BME280;47850;50.274;18.908;2023-03-23T09:53:05;97541.09;;;16.57;46.08
61898;BME280;47850;50.274;18.908;2023-03-23T09:55:36;97539.61;;;16.72;45.22
61898;BME280;47850;50.274;18.908;2023-03-23T09:58:09;97540.30;;;16.78;43.51
61898;BME280;47850;50.274;18.908;2023-03-23T10:00:40;97543.05;;;16.77;43.20
61898;BME280;47850;50.274;18.908;2023-03-23T10:06:08;97533.27;;;16.81;42.22
61898;BME280;47850;50.274;18.908;2023-03-23T10:08:36;97536.92;;;16.91;42.32
61898;BME280;47850;50.274;18.908;2023-03-23T10:13:42;97524.67;;;17.23;41.74
61898;BME280;47850;50.274;18.908;2023-03-23T10:16:19;97517.20;;;17.44;41.73
61898;BME280;47850;50.274;18.908;2023-03-23T10:21:35;97513.86;;;17.68;41.10
61898;BME280;47850;50.274;18.908;2023-03-23T10:24:08;97510.16;;;18.03;40.77
61898;BME280;47850;50.274;18.908;2023-03-23T10:26:40;97510.70;;;18.33;39.82
61898;BME280;47850;50.274;18.908;2023-03-23T10:29:20;97499.86;;;18.36;38.96
61898;BME280;47850;50.274;18.908;2023-03-23T10:31:54;97505.98;;;18.17;38.36
61898;BME280;47850;50.274;18.908;2023-03-23T10:37:25;97510.20;;;17.64;38.54
61898;BME280;47850;50.274;18.908;2023-03-23T10:39:54;97511.89;;;17.38;38.56
61898;BME280;47850;50.274;18.908;2023-03-23T10:42:26;97505.44;;;17.20;39.16
61898;BME280;47850;50.274;18.908;2023-03-23T10:44:55;97506.04;;;17.08;39.72
61898;BME280;47850;50.274;18.908;2023-03-23T10:47:23;97520.85;;;16.95;40.35
61898;BME280;47850;50.274;18.908;2023-03-23T10:49:53;97517.33;;;16.84;40.70
61898;BME280;47850;50.274;18.908;2023-03-23T10:54:51;97524.55;;;16.60;41.13
61898;BME280;47850;50.274;18.908;2023-03-23T10:57:22;97522.59;;;16.54;41.57
61898;BME280;47850;50.274;18.908;2023-03-23T10:59:51;97521.38;;;16.52;41.84
61898;BME280;47850;50.274;18.908;2023-03-23T11:02:19;97519.63;;;16.51;41.92
61898;BME280;47850;50.274;18.908;2023-03-23T11:04:55;97521.27;;;16.49;42.31
61898;BME280;47850;50.274;18.908;2023-03-23T11:07:25;97519.10;;;16.46;42.45
61898;BME280;47850;50.274;18.908;2023-03-23T11:09:55;97516.07;;;16.42;42.74
61898;BME280;47850;50.274;18.908;2023-03-23T11:12:23;97519.38;;;16.36;42.63
61898;BME280;47850;50.274;18.908;2023-03-23T11:14:51;97524.35;;;16.26;43.13
61898;BME280;47850;50.274;18.908;2023-03-23T11:17:26;97525.58;;;16.17;43.06
61898;BME280;47850;50.274;18.908;2023-03-23T11:19:54;97508.44;;;16.11;43.48
61898;BME280;47850;50.274;18.908;2023-03-23T11:22:26;97507.58;;;16.10;43.78
61898;BME280;47850;50.274;18.908;2023-03-23T11:24:55;97510.12;;;16.13;43.82
61898;BME280;47850;50.274;18.908;2023-03-23T11:27:24;97514.52;;;16.14;43.63
61898;BME280;47850;50.274;18.908;2023-03-23T11:29:56;97512.85;;;16.12;43.44
61898;BME280;47850;50.274;18.908;2023-03-23T11:32:27;97513.54;;;16.10;43.64
61898;BME280;47850;50.274;18.908;2023-03-23T11:35:03;97509.89;;;16.14;43.82
61898;BME280;47850;50.274;18.908;2023-03-23T11:40:02;97511.48;;;16.21;43.45
61898;BME280;47850;50.274;18.908;2023-03-23T11:42:38;97511.77;;;16.25;43.55
61898;BME280;47850;50.274;18.908;2023-03-23T11:45:24;97506.52;;;16.39;43.43
61898;BME280;47850;50.274;18.908;2023-03-23T11:50:24;97514.33;;;16.69;42.90
61898;BME280;47850;50.274;18.908;2023-03-23T11:55:37;97514.06;;;16.87;42.15
61898;BME280;47850;50.274;18.908;2023-03-23T11:58:11;97514.95;;;17.02;42.55
61898;BME280;47850;50.274;18.908;2023-03-23T12:00:41;97513.45;;;17.18;42.41
61898;BME280;47850;50.274;18.908;2023-03-23T12:06:16;97499.20;;;17.36;42.62
61898;BME280;47850;50.274;18.908;2023-03-23T12:13:54;97502.99;;;17.59;41.88
61898;BME280;47850;50.274;18.908;2023-03-23T12:21:34;97502.59;;;17.79;41.02
61898;BME280;47850;50.274;18.908;2023-03-23T12:24:15;97493.23;;;17.81;41.02
61898;BME280;47850;50.274;18.908;2023-03-23T12:26:57;97499.83;;;17.79;40.83
61898;BME280;47850;50.274;18.908;2023-03-23T12:42:56;97496.34;;;17.24;42.78
61898;BME280;47850;50.274;18.908;2023-03-23T12:48:16;97489.48;;;17.24;42.81
61898;BME280;47850;50.274;18.908;2023-03-23T12:53:27;97494.90;;;17.29;42.60
61898;BME280;47850;50.274;18.908;2023-03-23T12:58:44;97490.91;;;17.34;42.37
61898;BME280;47850;50.274;18.908;2023-03-23T13:01:23;97494.61;;;17.33;42.61
61898;BME280;47850;50.274;18.908;2023-03-23T13:03:55;97500.06;;;17.27;42.69
61898;BME280;47850;50.274;18.908;2023-03-23T13:09:04;97500.14;;;17.08;42.45
61898;BME280;47850;50.274;18.908;2023-03-23T13:11:35;97494.63;;;17.09;42.48
61898;BME280;47850;50.274;18.908;2023-03-23T13:14:08;97489.65;;;17.16;42.53
61898;BME280;47850;50.274;18.908;2023-03-23T13:19:17;97482.32;;;17.32;42.02
61898;BME280;47850;50.274;18.908;2023-03-23T13:21:53;97484.64;;;17.29;41.59
61898;BME280;47850;50.274;18.908;2023-03-23T13:24:25;97485.76;;;17.29;42.03
61898;BME280;47850;50.274;18.908;2023-03-23T13:26:54;97475.73;;;17.35;41.68
61898;BME280;47850;50.274;18.908;2023-03-23T13:29:25;97476.09;;;17.40;41.54
61898;BME280;47850;50.274;18.908;2023-03-23T13:32:39;97465.27;;;17.57;41.60
61898;BME280;47850;50.274;18.908;2023-03-23T13:34:47;97462.45;;;18.11;40.97
61898;BME280;47850;50.274;18.908;2023-03-23T13:42:18;97452.37;;;20.10;37.55
61898;BME280;47850;50.274;18.908;2023-03-23T13:49:59;97450.27;;;19.39;37.28
61898;BME280;47850;50.274;18.908;2023-03-23T14:10:56;97445.33;;;17.81;40.56
61898;BME280;47850;50.274;18.908;2023-03-23T14:13:31;97443.33;;;17.77;40.76
61898;BME280;47850;50.274;18.908;2023-03-23T14:16:01;97443.45;;;17.72;41.00
61898;BME280;47850;50.274;18.908;2023-03-23T14:18:37;97449.48;;;17.64;40.70
61898;BME280;47850;50.274;18.908;2023-03-23T14:21:06;97449.67;;;17.57;41.04
61898;BME280;47850;50.274;18.908;2023-03-23T14:23:34;97449.01;;;17.54;40.98
61898;BME280;47850;50.274;18.908;2023-03-23T14:26:06;97450.02;;;17.53;40.86
61898;BME280;47850;50.274;18.908;2023-03-23T14:28:39;97447.91;;;17.55;40.64
61898;BME280;47850;50.274;18.908;2023-03-23T14:31:16;97443.17;;;17.66;40.63
61898;BME280;47850;50.274;18.908;2023-03-23T14:33:45;97439.56;;;17.93;40.18
61898;BME280;47850;50.274;18.908;2023-03-23T14:36:22;97439.84;;;18.13;40.00
61898;BME280;47850;50.274;18.908;2023-03-23T14:38:58;97437.94;;;18.33;39.87
61898;BME280;47850;50.274;18.908;2023-03-23T14:41:28;97437.73;;;18.46;39.57
61898;BME280;47850;50.274;18.908;2023-03-23T14:43:56;97433.18;;;18.50;39.38
61898;BME280;47850;50.274;18.908;2023-03-23T14:46:26;97427.95;;;18.39;39.65
61898;BME280;47850;50.274;18.908;2023-03-23T14:48:54;97429.93;;;18.20;39.88
61898;BME280;47850;50.274;18.908;2023-03-23T14:51:22;97435.21;;;18.04;40.38
61898;BME280;47850;50.274;18.908;2023-03-23T14:53:51;97435.77;;;17.90;40.76
61898;BME280;47850;50.274;18.908;2023-03-23T14:56:20;97437.48;;;17.76;40.85
61898;BME280;47850;50.274;18.908;2023-03-23T14:58:51;97438.27;;;17.64;41.14
61898;BME280;47850;50.274;18.908;2023-03-23T15:01:23;97436.80;;;17.53;41.24
61898;BME280;47850;50.274;18.908;2023-03-23T15:03:55;97438.45;;;17.42;41.42
61898;BME280;47850;50.274;18.908;2023-03-23T15:06:25;97437.36;;;17.32;41.50
61898;BME280;47850;50.274;18.908;2023-03-23T15:08:54;97439.83;;;17.25;41.87
61898;BME280;47850;50.274;18.908;2023-03-23T15:11:28;97442.21;;;17.17;41.83
61898;BME280;47850;50.274;18.908;2023-03-23T15:13:57;97442.46;;;17.10;41.95
61898;BME280;47850;50.274;18.908;2023-03-23T15:16:27;97443.52;;;17.04;42.29
61898;BME280;47850;50.274;18.908;2023-03-23T15:18:56;97443.00;;;16.99;42.41
61898;BME280;47850;50.274;18.908;2023-03-23T15:21:30;97443.17;;;16.93;42.50
61898;BME280;47850;50.274;18.908;2023-03-23T15:23:58;97434.85;;;16.88;42.73
61898;BME280;47850;50.274;18.908;2023-03-23T15:26:41;97436.77;;;16.84;42.80
61898;BME280;47850;50.274;18.908;2023-03-23T15:31:47;97428.02;;;16.74;43.14
61898;BME280;47850;50.274;18.908;2023-03-23T15:34:30;97422.39;;;16.69;43.30
61898;BME280;47850;50.274;18.908;2023-03-23T15:37:03;97421.02;;;16.64;43.43
61898;BME280;47850;50.274;18.908;2023-03-23T15:39:32;97425.23;;;16.61;43.54
61898;BME280;47850;50.274;18.908;2023-03-23T15:42:00;97424.08;;;16.57;43.77
61898;BME280;47850;50.274;18.908;2023-03-23T15:44:32;97427.52;;;16.54;43.89
61898;BME280;47850;50.274;18.908;2023-03-23T15:47:03;97427.10;;;16.52;44.04
61898;BME280;47850;50.274;18.908;2023-03-23T15:49:31;97426.30;;;16.51;44.27
61898;BME280;47850;50.274;18.908;2023-03-23T15:51:59;97432.73;;;16.50;44.30
61898;BME280;47850;50.274;18.908;2023-03-23T15:54:29;97434.11;;;16.46;44.39
61898;BME280;47850;50.274;18.908;2023-03-23T15:56:57;97433.99;;;16.43;44.53